Time;durP1;ratioP1;P1;durP2;ratioP2;P2;SDS_P1;SDS_P2;PMS_P1;PMS_P2;Temp;Humidity;BMP_temperature;BMP_pressure;BME280_temperature;BME280_humidity;BME280_pressure;Samples;Min_cycle;Max_cycle;Signal;HPM_P1;HPM_P2
2022/06/22 00:01:21;;;;;;;4.68;4.10;;;;;;;13.22;79.27;101195.03;6221121;23;20000;-86
2022/06/22 00:04:00;;;;;;;14.13;4.88;;;;;;;13.15;79.96;101191.53;6213137;23;20004;-86
2022/06/22 00:06:53;;;;;;;10.77;5.03;;;;;;;13.02;79.31;101175.31;6221157;23;20504;-86
2022/06/22 00:09:33;;;;;;;10.57;4.97;;;;;;;12.98;80.34;101174.94;6221009;23;20095;-86
2022/06/22 00:11:59;;;;;;;8.90;4.70;;;;;;;12.96;80.85;101174.31;6220924;23;20008;-86
2022/06/22 00:14:32;;;;;;;7.22;4.95;;;;;;;12.90;81.27;101165.16;6247413;23;20008;-86
2022/06/22 00:16:58;;;;;;;10.48;5.30;;;;;;;12.89;81.52;101168.09;6220886;23;20008;-86
2022/06/22 00:19:35;;;;;;;6.23;5.00;;;;;;;12.85;81.32;101159.53;6195773;23;20050;-85
2022/06/22 00:22:03;;;;;;;8.35;5.43;;;;;;;12.84;82.37;101160.59;6247862;23;20012;-86
2022/06/22 00:24:39;;;;;;;8.38;5.57;;;;;;;12.80;82.97;101162.94;6196107;23;20323;-86
2022/06/22 00:27:26;;;;;;;10.80;5.77;;;;;;;12.87;84.06;101175.66;6220590;23;20008;-86
2022/06/22 00:30:31;;;;;;;11.18;6.45;;;;;;;12.76;83.50;101164.44;6247173;23;20008;-86
2022/06/22 00:33:20;;;;;;;11.68;6.85;;;;;;;12.81;85.21;101175.50;6203698;23;20373;-86
2022/06/22 00:35:50;;;;;;;9.52;6.30;;;;;;;12.85;86.12;101169.59;6247482;23;20431;-85
2022/06/22 00:38:20;;;;;;;10.77;6.85;;;;;;;12.82;86.25;101163.53;6220836;23;20083;-86
2022/06/22 00:40:52;;;;;;;9.33;6.60;;;;;;;12.76;86.36;101150.81;6220062;23;20011;-85
2022/06/22 00:43:18;;;;;;;12.77;7.18;;;;;;;12.85;86.59;101164.16;6246785;23;20058;-81
2022/06/22 00:45:43;;;;;;;10.02;7.03;;;;;;;12.82;86.78;101179.06;6221040;23;20007;-81
2022/06/22 00:48:21;;;;;;;13.43;7.33;;;;;;;12.81;87.32;101186.41;6247562;23;20079;-81
2022/06/22 00:50:58;;;;;;;12.07;7.55;;;;;;;12.78;87.63;101178.66;6221027;23;20509;-81
2022/06/22 00:53:31;;;;;;;13.40;8.10;;;;;;;12.77;87.72;101173.41;6220982;23;20031;-81
2022/06/22 00:56:06;;;;;;;11.45;7.68;;;;;;;12.78;88.05;101166.94;6220950;23;20027;-81
2022/06/22 00:58:47;;;;;;;11.45;7.85;;;;;;;12.77;87.93;101162.53;6220708;23;20018;-81
2022/06/22 01:01:21;;;;;;;10.67;7.53;;;;;;;12.79;88.10;101160.44;6248137;23;20011;-81
2022/06/22 01:04:17;;;;;;;12.90;8.00;;;;;;;12.80;87.74;101152.03;6247780;23;20083;-81
2022/06/22 01:07:01;;;;;;;14.23;7.80;;;;;;;12.82;88.51;101139.03;6220718;23;20103;-81
2022/06/22 01:09:35;;;;;;;13.15;7.85;;;;;;;12.81;88.96;101159.16;6219999;23;20015;-81
2022/06/22 01:12:16;;;;;;;11.75;7.82;;;;;;;12.80;89.16;101176.56;6221440;23;20062;-82
2022/06/22 01:15:05;;;;;;;13.63;7.80;;;;;;;12.79;88.60;101188.50;6221458;23;20016;-81
2022/06/22 01:17:52;;;;;;;12.10;7.72;;;;;;;12.75;88.69;101176.38;6188640;23;20488;-81
2022/06/22 01:20:58;;;;;;;9.27;7.60;;;;;;;12.71;88.74;101191.50;6220314;23;20018;-81
2022/06/22 01:24:01;;;;;;;16.02;7.75;;;;;;;12.70;89.07;101189.81;6247148;23;20007;-81
2022/06/22 01:26:47;;;;;;;12.35;7.50;;;;;;;12.69;89.72;101181.88;6220024;23;20035;-82
2022/06/22 01:29:20;;;;;;;15.87;7.50;;;;;;;12.67;90.17;101184.81;6219960;23;20057;-81
2022/06/22 01:31:58;;;;;;;13.02;7.97;;;;;;;12.66;90.71;101174.97;6219883;23;20019;-81
2022/06/22 01:34:25;;;;;;;15.07;8.35;;;;;;;12.64;90.81;101153.44;6220181;23;20492;-81
2022/06/22 01:36:51;;;;;;;14.73;8.48;;;;;;;12.66;91.05;101149.66;6220986;23;20008;-81
2022/06/22 01:39:17;;;;;;;14.40;9.40;;;;;;;12.66;91.28;101139.59;6220450;23;20016;-81
2022/06/22 01:41:56;;;;;;;13.73;8.27;;;;;;;12.67;91.01;101138.53;6220706;23;20480;-81
2022/06/22 01:44:48;;;;;;;15.38;9.07;;;;;;;12.65;91.22;101137.91;6246612;23;20439;-81
2022/06/22 01:47:25;;;;;;;14.18;8.85;;;;;;;12.66;91.91;101155.94;6220494;23;20316;-81
2022/06/22 01:50:06;;;;;;;15.03;9.20;;;;;;;12.63;92.30;101157.19;6246901;23;20209;-81
2022/06/22 01:52:54;;;;;;;16.02;9.20;;;;;;;12.62;92.22;101151.97;6220488;23;20008;-81
2022/06/22 01:56:03;;;;;;;14.88;9.07;;;;;;;12.57;91.84;101143.66;6246859;23;20058;-81
2022/06/22 01:58:42;;;;;;;14.50;9.15;;;;;;;12.57;92.70;101149.09;6214421;23;20080;-81
2022/06/22 02:01:27;;;;;;;13.48;9.27;;;;;;;12.56;93.40;101150.13;6246553;23;20000;-82
2022/06/22 02:04:12;;;;;;;18.23;8.93;;;;;;;12.57;93.37;101140.94;6246920;23;20061;-81
2022/06/22 02:10:00;;;;;;;16.58;9.35;;;;;;;12.61;93.55;101142.16;6247175;23;20323;-81
2022/06/22 02:12:54;;;;;;;16.40;9.60;;;;;;;12.61;93.56;101142.16;6220303;23;20034;-81
2022/06/22 02:15:44;;;;;;;15.25;9.23;;;;;;;12.62;94.29;101146.53;6197694;23;20415;-81
2022/06/22 02:18:14;;;;;;;14.83;9.50;;;;;;;12.61;94.42;101139.44;6220365;23;20035;-81
2022/06/22 02:20:40;;;;;;;15.52;9.93;;;;;;;12.63;94.27;101142.75;6220045;23;20003;-81
2022/06/22 02:23:34;;;;;;;14.43;10.00;;;;;;;12.59;94.15;101153.28;6219927;23;20063;-81
2022/06/22 02:26:38;;;;;;;16.88;9.60;;;;;;;12.56;93.91;101144.69;6246726;23;20442;-81
2022/06/22 02:29:04;;;;;;;19.38;9.98;;;;;;;12.53;94.69;101134.25;6099904;23;20101;-81
2022/06/22 02:31:31;;;;;;;14.30;9.83;;;;;;;12.51;95.06;101133.66;6172971;23;20044;-81
2022/06/22 02:33:57;;;;;;;18.80;9.88;;;;;;;12.48;95.50;101128.66;6220008;23;20028;-81
2022/06/22 02:36:31;;;;;;;18.70;10.32;;;;;;;12.46;95.64;101123.44;6219745;23;20310;-81
2022/06/22 02:39:01;;;;;;;18.97;10.77;;;;;;;12.45;95.82;101119.88;6246666;23;20004;-81
2022/06/22 02:44:32;;;;;;;19.27;10.43;;;;;;;12.41;96.58;101118.63;6224533;23;20063;-81
2022/06/22 02:47:19;;;;;;;17.92;10.52;;;;;;;12.41;96.53;101124.06;6220104;23;20160;-81
2022/06/22 02:49:50;;;;;;;18.13;10.30;;;;;;;12.37;96.62;101122.88;6229778;23;20008;-81
2022/06/22 02:52:17;;;;;;;16.77;9.67;;;;;;;12.36;96.37;101123.91;6247285;23;20426;-81
2022/06/22 02:54:53;;;;;;;16.83;10.77;;;;;;;12.32;96.78;101132.75;6246880;23;20062;-81
2022/06/22 02:57:25;;;;;;;17.80;11.35;;;;;;;12.29;97.08;101132.13;6246302;23;20004;-81
2022/06/22 02:59:51;;;;;;;16.60;10.30;;;;;;;12.29;96.93;101145.72;6220636;23;20065;-81
2022/06/22 03:02:20;;;;;;;24.17;10.77;;;;;;;12.28;97.29;101148.66;6219284;23;20050;-81
2022/06/22 03:04:47;;;;;;;17.73;10.50;;;;;;;12.28;97.28;101145.94;6219795;23;20008;-81
2022/06/22 03:07:17;;;;;;;17.80;10.77;;;;;;;12.22;97.46;101144.09;6246285;23;20059;-81
2022/06/22 03:09:43;;;;;;;19.10;11.63;;;;;;;12.22;97.98;101142.22;6246060;23;20008;-81
2022/06/22 03:12:13;;;;;;;18.13;11.50;;;;;;;12.19;98.19;101147.25;6219221;23;20019;-81
2022/06/22 03:14:50;;;;;;;19.63;11.27;;;;;;;12.20;98.35;101143.50;6246437;23;20430;-81
2022/06/22 03:17:19;;;;;;;26.33;11.90;;;;;;;12.21;97.95;101134.25;6246447;23;20055;-81
2022/06/22 03:20:03;;;;;;;15.52;10.82;;;;;;;12.18;97.43;101135.56;6219793;23;20008;-81
2022/06/22 03:22:43;;;;;;;15.25;10.40;;;;;;;12.16;97.02;101124.03;6220137;23;20402;-81
2022/06/22 03:25:22;;;;;;;15.88;10.70;;;;;;;12.13;97.54;101127.19;6220328;23;20011;-81
2022/06/22 03:27:52;;;;;;;15.07;10.97;;;;;;;12.11;97.67;101124.69;6248092;23;20008;-81
2022/06/22 03:30:28;;;;;;;23.35;11.32;;;;;;;12.11;97.65;101119.25;6248111;23;20004;-81
2022/06/22 03:33:04;;;;;;;20.77;11.10;;;;;;;12.11;97.38;101119.25;6248125;23;20029;-81
2022/06/22 03:35:38;;;;;;;17.00;10.82;;;;;;;12.11;97.41;101124.69;6248574;23;20004;-81
2022/06/22 03:38:12;;;;;;;16.50;11.60;;;;;;;12.10;97.73;101123.03;6222392;23;20375;-81
2022/06/22 03:40:48;;;;;;;16.27;11.20;;;;;;;12.10;98.09;101130.38;6221614;23;20441;-81
2022/06/22 03:43:26;;;;;;;21.77;12.43;;;;;;;12.10;98.08;101123.03;6221691;23;20090;-81
2022/06/22 03:46:05;;;;;;;20.48;12.45;;;;;;;12.10;97.97;101120.31;6220889;23;20022;-81
2022/06/22 03:48:50;;;;;;;19.92;11.45;;;;;;;12.08;98.06;101105.28;6221628;23;20012;-81
2022/06/22 03:51:27;;;;;;;18.00;11.43;;;;;;;12.09;98.02;101101.50;6221114;23;20015;-81
2022/06/22 03:54:08;;;;;;;17.47;12.07;;;;;;;12.10;98.05;101112.16;6248443;23;20050;-81
2022/06/22 03:56:38;;;;;;;23.83;12.40;;;;;;;12.14;98.23;101114.47;6221702;23;20423;-81
2022/06/22 03:59:05;;;;;;;21.52;11.32;;;;;;;12.14;98.02;101119.91;6221470;23;20050;-81
2022/06/22 04:01:31;;;;;;;19.45;12.13;;;;;;;12.17;98.25;101123.00;6248667;23;20012;-81
2022/06/22 04:03:58;;;;;;;20.20;12.13;;;;;;;12.19;98.50;101111.91;6221052;23;20008;-81
2022/06/22 04:06:34;;;;;;;17.30;12.50;;;;;;;12.21;98.42;101104.34;6196299;23;20008;-81
2022/06/22 04:09:02;;;;;;;20.58;11.55;;;;;;;12.26;98.05;101099.09;6220813;23;20004;-81
2022/06/22 04:11:36;;;;;;;22.30;11.85;;;;;;;12.28;98.33;101100.53;6220513;23;20449;-81
2022/06/22 04:14:12;;;;;;;24.38;12.43;;;;;;;12.34;98.10;101108.84;6247777;23;20018;-81
2022/06/22 04:16:41;;;;;;;22.20;12.15;;;;;;;12.37;98.16;101103.81;6221320;23;20050;-82
2022/06/22 04:19:20;;;;;;;17.07;12.40;;;;;;;12.41;98.37;101110.47;6247504;23;20004;-81
2022/06/22 04:21:52;;;;;;;20.55;12.45;;;;;;;12.45;98.62;101117.13;6221748;23;20311;-81
2022/06/22 04:24:23;;;;;;;19.10;12.77;;;;;;;12.49;98.58;101117.56;6221177;23;20008;-81
2022/06/22 04:27:07;;;;;;;17.80;12.40;;;;;;;12.55;98.51;101119.38;6221152;23;20008;-81
2022/06/22 04:29:52;;;;;;;17.55;12.05;;;;;;;12.60;97.88;101118.72;6221132;23;20090;-81
2022/06/22 04:32:26;;;;;;;19.43;11.23;;;;;;;12.63;98.09;101124.53;6247739;23;20008;-81
2022/06/22 04:35:16;;;;;;;24.30;13.27;;;;;;;12.69;97.74;101132.88;6220545;23;20015;-81
2022/06/22 04:38:08;;;;;;;20.77;13.13;;;;;;;12.75;98.56;101135.53;6220757;23;20330;-81
2022/06/22 04:40:56;;;;;;;22.45;13.65;;;;;;;12.80;98.12;101138.44;6151420;23;20051;-81
2022/06/22 04:43:22;;;;;;;18.92;12.68;;;;;;;12.85;98.21;101145.91;6247094;23;20010;-81
2022/06/22 04:45:49;;;;;;;23.17;13.60;;;;;;;12.89;98.23;101144.44;6220872;23;20044;-81
2022/06/22 04:48:16;;;;;;;21.75;13.25;;;;;;;12.95;98.14;101145.44;6247285;23;20000;-81
2022/06/22 04:50:48;;;;;;;24.70;13.40;;;;;;;13.00;97.95;101137.41;6220559;23;20016;-82
2022/06/22 04:53:22;;;;;;;20.88;13.30;;;;;;;13.07;97.46;101134.63;6220897;23;20000;-82
2022/06/22 04:55:50;;;;;;;24.07;13.23;;;;;;;13.12;97.21;101138.34;6221622;23;20083;-82
2022/06/22 04:58:44;;;;;;;22.05;13.30;;;;;;;13.19;97.05;101142.88;6220392;23;20027;-82
2022/06/22 05:01:24;;;;;;;22.00;13.77;;;;;;;13.27;96.98;101139.84;6221491;23;20012;-82
2022/06/22 05:03:53;;;;;;;18.98;13.50;;;;;;;13.33;96.77;101152.56;6247321;23;20008;-83
2022/06/22 05:06:25;;;;;;;22.85;13.45;;;;;;;13.39;96.76;101146.25;6220234;23;20004;-83
2022/06/22 05:08:59;;;;;;;25.23;13.87;;;;;;;13.44;96.11;101153.75;6247735;23;20004;-82
2022/06/22 05:11:30;;;;;;;20.80;12.93;;;;;;;13.53;95.89;101155.09;6220474;23;20418;-82
2022/06/22 05:14:00;;;;;;;20.27;13.80;;;;;;;13.59;95.37;101151.47;6221330;23;20027;-82
2022/06/22 05:16:30;;;;;;;24.08;13.32;;;;;;;13.69;94.90;101154.50;6220046;23;20019;-82
2022/06/22 05:18:58;;;;;;;20.58;13.27;;;;;;;13.79;94.66;101155.84;6246906;23;20011;-82
2022/06/22 05:21:43;;;;;;;23.47;13.77;;;;;;;13.89;93.91;101149.84;6247030;23;20059;-82
2022/06/22 05:24:22;;;;;;;21.27;13.18;;;;;;;13.98;93.64;101148.44;6221038;23;20008;-83
2022/06/22 05:26:50;;;;;;;18.90;13.52;;;;;;;14.07;93.17;101157.16;6220725;23;20000;-82
2022/06/22 05:29:21;;;;;;;22.05;14.38;;;;;;;14.13;93.10;101157.06;6220696;23;20011;-82
2022/06/22 05:31:52;;;;;;;23.33;14.77;;;;;;;14.19;92.57;101161.59;6247119;23;20012;-82
2022/06/22 05:34:23;;;;;;;23.13;13.23;;;;;;;14.24;92.07;101158.16;6246802;23;20091;-82
2022/06/22 05:37:03;;;;;;;24.60;13.65;;;;;;;14.28;91.43;101164.84;6246814;23;20004;-82
2022/06/22 05:39:32;;;;;;;23.63;13.52;;;;;;;14.33;91.41;101170.41;6221173;23;20094;-82
2022/06/22 05:41:58;;;;;;;19.70;14.20;;;;;;;14.38;91.66;101167.00;6220604;23;20009;-82
2022/06/22 05:44:24;;;;;;;20.20;13.80;;;;;;;14.43;91.35;101177.22;6219187;23;20017;-82
2022/06/22 05:46:55;;;;;;;23.67;14.45;;;;;;;14.49;91.04;101173.56;6195669;23;20018;-82
2022/06/22 05:49:26;;;;;;;22.85;14.18;;;;;;;14.53;90.65;101186.50;6219739;23;20012;-82
2022/06/22 05:52:04;;;;;;;22.20;12.87;;;;;;;14.60;90.04;101177.38;6219963;23;20385;-82
2022/06/22 05:54:39;;;;;;;21.42;12.52;;;;;;;14.69;89.62;101190.50;6219872;23;20004;-82
2022/06/22 05:57:20;;;;;;;19.35;12.32;;;;;;;14.79;88.90;101198.09;6246646;23;20004;-82
2022/06/22 05:59:49;;;;;;;18.50;13.13;;;;;;;14.89;88.67;101195.63;6219845;23;20004;-82
2022/06/22 06:02:29;;;;;;;23.13;13.00;;;;;;;15.00;88.72;101193.97;6220467;23;20043;-82
2022/06/22 06:05:00;;;;;;;18.00;12.50;;;;;;;15.06;87.69;101193.03;6246460;23;20007;-82
2022/06/22 06:07:30;;;;;;;17.25;11.98;;;;;;;15.10;87.17;101198.84;6219386;23;20011;-82
2022/06/22 06:09:58;;;;;;;18.52;12.57;;;;;;;15.14;87.18;101197.31;6219849;23;20035;-81
2022/06/22 06:12:33;;;;;;;19.17;12.77;;;;;;;15.14;86.77;101191.84;6194616;23;20012;-82
2022/06/22 06:15:02;;;;;;;22.60;13.05;;;;;;;15.15;86.07;101196.25;6219760;23;20307;-83
2022/06/22 06:17:34;;;;;;;18.73;12.67;;;;;;;15.19;86.55;101183.78;6220162;23;20008;-83
2022/06/22 06:20:02;;;;;;;20.92;12.13;;;;;;;15.24;85.92;101185.78;6219139;23;20011;-83
2022/06/22 06:22:30;;;;;;;19.38;12.52;;;;;;;15.32;86.04;101193.59;6218930;23;20047;-82
2022/06/22 06:28:02;;;;;;;18.98;12.30;;;;;;;15.54;84.90;101203.94;6245874;23;20023;-83
2022/06/22 06:30:38;;;;;;;19.07;12.17;;;;;;;15.68;84.80;101204.50;6246336;23;20448;-83
2022/06/22 06:33:35;;;;;;;17.77;12.57;;;;;;;15.79;84.56;101198.22;6219434;23;20095;-83
2022/06/22 06:36:28;;;;;;;21.55;12.73;;;;;;;15.99;83.47;101206.03;6219707;23;20495;-83
2022/06/22 06:38:59;;;;;;;19.13;12.07;;;;;;;16.16;82.33;101199.78;6246137;23;20083;-82
2022/06/22 06:41:31;;;;;;;23.27;13.00;;;;;;;16.34;82.10;101194.06;6247183;23;20001;-83
2022/06/22 06:44:10;;;;;;;21.83;12.07;;;;;;;16.49;80.22;101191.63;6245561;23;20038;-83
2022/06/22 06:46:58;;;;;;;21.48;11.43;;;;;;;16.66;79.50;101180.69;6219663;23;20295;-83
2022/06/22 06:49:39;;;;;;;21.92;12.45;;;;;;;16.84;78.22;101173.28;6246148;23;20011;-83
2022/06/22 06:52:20;;;;;;;20.20;11.48;;;;;;;17.01;77.60;101168.66;6219844;23;20012;-83
2022/06/22 06:54:58;;;;;;;18.00;11.43;;;;;;;17.17;76.16;101171.66;6246795;23;20011;-81
2022/06/22 06:57:28;;;;;;;19.07;11.70;;;;;;;17.30;75.37;101174.03;6218843;23;20015;-80
2022/06/22 06:59:58;;;;;;;15.10;11.25;;;;;;;17.36;74.08;101163.94;6246416;23;20008;-81
2022/06/22 07:02:39;;;;;;;18.02;12.07;;;;;;;17.44;74.93;101171.75;6248261;23;20038;-80
2022/06/22 07:05:11;;;;;;;16.55;11.10;;;;;;;17.50;74.25;101169.91;6221482;23;20004;-80
2022/06/22 07:07:45;;;;;;;27.15;12.30;;;;;;;17.59;73.72;101164.81;6221836;23;20012;-80
2022/06/22 07:10:19;;;;;;;17.90;11.97;;;;;;;17.74;73.30;101165.00;6221930;23;20004;-80
2022/06/22 07:12:56;;;;;;;19.73;11.07;;;;;;;17.92;72.59;101163.84;6221444;23;20011;-80
2022/06/22 07:15:26;;;;;;;18.33;11.07;;;;;;;18.12;71.76;101163.25;6221847;23;20043;-80
2022/06/22 07:17:55;;;;;;;17.52;11.65;;;;;;;18.30;70.62;101172.25;6221592;23;20096;-80
2022/06/22 07:20:30;;;;;;;18.88;11.23;;;;;;;18.46;70.59;101160.31;6248254;23;20008;-80
2022/06/22 07:23:12;;;;;;;16.97;11.17;;;;;;;18.65;69.96;101165.41;6248521;23;20018;-80
2022/06/22 07:25:46;;;;;;;14.52;10.48;;;;;;;18.82;69.36;101159.78;6221626;23;20014;-80
2022/06/22 07:28:23;;;;;;;14.27;10.45;;;;;;;19.01;67.29;101152.78;6247493;23;20004;-80
2022/06/22 07:31:00;;;;;;;14.60;9.82;;;;;;;19.19;66.18;101143.28;6248157;23;20024;-80
2022/06/22 07:33:29;;;;;;;15.25;10.43;;;;;;;19.41;66.13;101131.28;6248299;23;20071;-80
2022/06/22 07:36:06;;;;;;;17.33;9.50;;;;;;;19.59;65.73;101139.09;6248037;23;20008;-80
2022/06/22 07:38:57;;;;;;;15.43;10.40;;;;;;;19.87;65.79;101137.03;6248194;23;20015;-80
2022/06/22 07:41:25;;;;;;;18.70;9.75;;;;;;;20.06;63.74;101136.50;6221145;23;20004;-80
2022/06/22 07:43:57;;;;;;;16.00;10.38;;;;;;;20.22;63.66;101143.69;6248338;23;20008;-80
2022/06/22 07:46:29;;;;;;;16.42;10.93;;;;;;;20.48;63.18;101150.06;6247934;23;20000;-80
2022/06/22 07:49:02;;;;;;;17.50;11.03;;;;;;;20.72;62.79;101149.53;6221301;23;20008;-80
2022/06/22 07:51:30;;;;;;;16.50;9.27;;;;;;;20.86;59.57;101144.31;6221570;23;20007;-80
2022/06/22 07:54:03;;;;;;;13.15;9.23;;;;;;;20.95;59.21;101141.78;6221349;23;20014;-80
2022/06/22 07:56:58;;;;;;;12.05;8.93;;;;;;;21.06;60.66;101132.41;6221823;23;20004;-80
2022/06/22 07:59:29;;;;;;;14.57;9.40;;;;;;;21.07;59.24;101141.47;6221443;23;20008;-80
2022/06/22 08:01:59;;;;;;;16.57;8.50;;;;;;;20.97;58.80;101140.41;6247920;23;20000;-80
2022/06/22 08:04:42;;;;;;;16.60;8.98;;;;;;;20.84;59.59;101136.28;6220836;23;20004;-80
2022/06/22 08:07:15;;;;;;;12.30;8.85;;;;;;;20.67;58.60;101139.34;6247723;23;20007;-84
2022/06/22 08:09:47;;;;;;;17.00;8.52;;;;;;;20.47;57.84;101147.56;6247997;23;20070;-81
2022/06/22 08:12:20;;;;;;;20.95;10.52;;;;;;;20.30;60.82;101148.66;6247189;23;20001;-80
2022/06/22 08:14:52;;;;;;;13.73;10.53;;;;;;;20.16;61.76;101162.13;6247501;23;20114;-80
2022/06/22 08:17:41;;;;;;;17.73;10.50;;;;;;;20.16;62.84;101161.31;6247844;23;20330;-81
2022/06/22 08:20:08;;;;;;;16.08;10.60;;;;;;;20.02;62.95;101161.00;6247587;23;20024;-80
2022/06/22 08:22:34;;;;;;;20.75;10.90;;;;;;;19.89;63.65;101167.84;6247523;23;20004;-80
2022/06/22 08:25:03;;;;;;;21.53;10.70;;;;;;;19.79;63.40;101167.81;6247365;23;20039;-80
2022/06/22 08:27:29;;;;;;;14.27;10.07;;;;;;;19.72;63.56;101165.25;6247514;23;20039;-80
2022/06/22 08:29:57;;;;;;;20.33;10.68;;;;;;;19.65;63.61;101164.72;6195739;23;20096;-80
2022/06/22 08:32:32;;;;;;;15.18;10.90;;;;;;;19.62;64.04;101163.31;6247558;23;20011;-80
2022/06/22 08:35:16;;;;;;;18.65;10.07;;;;;;;19.61;63.71;101169.09;6247483;23;20008;-80
2022/06/22 08:37:52;;;;;;;15.47;8.73;;;;;;;19.62;63.71;101160.56;6221294;23;20461;-80
2022/06/22 08:40:23;;;;;;;12.73;8.07;;;;;;;19.69;62.62;101171.31;6247560;23;20008;-80
2022/06/22 08:43:16;;;;;;;16.48;8.00;;;;;;;19.78;62.06;101167.00;6247229;23;20011;-80
2022/06/22 08:46:00;;;;;;;12.25;7.45;;;;;;;19.91;60.64;101176.66;6219725;23;20012;-80
2022/06/22 08:49:03;;;;;;;12.50;7.07;;;;;;;20.07;61.43;101173.97;6220535;23;20099;-80
2022/06/22 08:51:40;;;;;;;10.63;7.37;;;;;;;20.18;60.58;101161.03;6220486;23;20007;-80
2022/06/22 08:54:14;;;;;;;11.30;6.78;;;;;;;20.18;59.22;101169.28;6220682;23;20007;-80
2022/06/22 08:56:51;;;;;;;12.75;6.72;;;;;;;20.19;59.00;101165.47;6246920;23;20019;-82
2022/06/22 08:59:22;;;;;;;8.38;5.85;;;;;;;20.20;58.57;101156.91;6219957;23;20037;-80
2022/06/22 09:02:26;;;;;;;11.85;5.35;;;;;;;20.29;58.84;101154.44;6220548;23;20330;-80
2022/06/22 09:05:06;;;;;;;9.43;4.33;;;;;;;20.35;56.71;101155.28;6220605;23;20000;-80
2022/06/22 09:08:01;;;;;;;6.43;4.05;;;;;;;20.40;56.52;101141.50;6220025;23;20011;-80
2022/06/22 09:10:48;;;;;;;8.05;4.10;;;;;;;20.48;55.13;101152.81;6221079;23;20012;-80
2022/06/22 09:13:41;;;;;;;7.65;3.78;;;;;;;20.57;56.43;101146.75;6220270;23;20012;-80
2022/06/22 09:16:06;;;;;;;8.80;3.95;;;;;;;20.66;54.15;101156.16;6247438;23;20008;-83
2022/06/22 09:18:39;;;;;;;8.30;4.20;;;;;;;20.76;54.00;101169.94;6220448;23;20383;-81
2022/06/22 09:21:29;;;;;;;7.72;4.20;;;;;;;20.85;53.66;101173.78;6246819;23;20058;-81
2022/06/22 09:24:10;;;;;;;10.77;4.93;;;;;;;20.94;52.71;101167.72;6220996;23;20403;-80
2022/06/22 09:27:00;;;;;;;8.80;4.30;;;;;;;21.03;53.45;101166.06;6247015;23;20007;-80
2022/06/22 09:29:56;;;;;;;7.38;3.75;;;;;;;21.13;52.99;101177.06;6221159;23;20008;-81
2022/06/22 09:32:49;;;;;;;6.22;3.70;;;;;;;21.22;52.58;101171.00;6247283;23;20034;-81
2022/06/22 09:35:23;;;;;;;9.48;3.50;;;;;;;21.29;50.82;101172.34;6246984;23;20083;-80
2022/06/22 09:38:12;;;;;;;7.03;3.53;;;;;;;21.36;51.75;101172.88;6246988;23;20008;-81
2022/06/22 09:40:56;;;;;;;6.45;3.65;;;;;;;21.45;50.50;101169.53;6164332;23;20008;-81
2022/06/22 09:43:45;;;;;;;6.85;3.85;;;;;;;21.55;51.85;101173.13;6221284;23;20024;-80
2022/06/22 09:46:39;;;;;;;6.80;4.40;;;;;;;21.67;51.73;101174.72;6190305;23;20012;-80
2022/06/22 09:49:26;;;;;;;9.38;4.10;;;;;;;21.81;50.75;101177.72;6164803;23;20048;-81
2022/06/22 09:52:37;;;;;;;9.60;3.50;;;;;;;21.98;49.98;101167.16;6216374;23;20039;-81
2022/06/22 09:58:38;;;;;;;7.20;3.33;;;;;;;22.27;47.58;101168.34;6216345;23;20130;-80
2022/06/22 10:01:36;;;;;;;6.55;3.13;;;;;;;22.47;48.81;101161.88;6189500;23;20062;-80
2022/06/22 10:04:33;;;;;;;4.25;3.00;;;;;;;22.56;46.65;101157.41;6124747;23;20015;-78
2022/06/22 10:07:07;;;;;;;5.53;2.90;;;;;;;22.76;46.23;101165.53;6216580;23;20411;-80
2022/06/22 10:09:58;;;;;;;8.60;3.10;;;;;;;22.88;45.79;101162.38;6190043;23;20008;-80
2022/06/22 10:12:50;;;;;;;6.25;3.13;;;;;;;23.01;46.10;101163.59;6216520;23;20035;-80
2022/06/22 10:15:37;;;;;;;4.82;3.00;;;;;;;23.22;45.58;101152.34;6216117;23;20005;-80
2022/06/22 10:18:21;;;;;;;5.88;3.28;;;;;;;23.37;44.75;101141.13;6189641;23;20108;-80
2022/06/22 10:20:53;;;;;;;5.83;3.00;;;;;;;23.54;42.70;101131.50;6189881;23;20019;-80
2022/06/22 10:23:24;;;;;;;8.38;2.60;;;;;;;23.63;42.05;101138.84;6215965;23;20012;-80
2022/06/22 10:26:19;;;;;;;5.35;2.70;;;;;;;23.75;41.36;101137.59;6189976;23;20043;-82
2022/06/22 10:29:02;;;;;;;6.10;3.05;;;;;;;23.90;41.88;101126.34;6190358;23;20084;-83
2022/06/22 10:31:54;;;;;;;6.30;2.90;;;;;;;24.06;40.81;101135.25;6216498;23;20419;-83
2022/06/22 10:34:41;;;;;;;7.03;2.60;;;;;;;24.21;40.82;101136.97;6216149;23;20005;-83
2022/06/22 10:37:26;;;;;;;7.22;2.78;;;;;;;24.42;41.96;101137.47;6190012;23;20351;-82
2022/06/22 10:46:25;;;;;;;5.93;2.60;;;;;;;24.96;38.92;101134.38;6216117;23;20073;-82
2022/06/22 10:49:02;;;;;;;5.63;2.87;;;;;;;24.98;38.47;101132.09;6189641;23;20082;-82
2022/06/22 10:51:46;;;;;;;5.75;2.85;;;;;;;25.30;38.98;101127.59;6189319;23;20036;-83
2022/06/22 10:54:27;;;;;;;7.15;3.15;;;;;;;25.53;37.41;101132.16;6189140;23;20008;-82
2022/06/22 10:57:40;;;;;;;3.72;2.58;;;;;;;25.69;38.56;101129.06;6215896;23;20015;-83
2022/06/22 11:00:15;;;;;;;6.30;2.70;;;;;;;26.07;36.74;101129.63;6189660;23;20009;-82
2022/06/22 11:02:50;;;;;;;6.73;3.30;;;;;;;26.34;35.61;101130.66;6189213;23;20008;-82
2022/06/22 11:05:31;;;;;;;9.55;3.13;;;;;;;26.44;36.24;101121.19;6189310;23;20091;-82
2022/06/22 11:08:09;;;;;;;6.93;2.95;;;;;;;26.65;35.17;101118.75;6188819;23;20008;-83
2022/06/22 11:10:57;;;;;;;3.65;2.80;;;;;;;26.88;35.41;101130.66;6189462;23;20013;-82
2022/06/22 11:13:34;;;;;;;4.65;2.75;;;;;;;27.03;34.05;101121.09;6189119;23;20012;-82
2022/06/22 11:16:21;;;;;;;4.80;3.07;;;;;;;27.19;33.10;101123.44;6216102;23;20416;-82
2022/06/22 11:19:01;;;;;;;5.97;2.58;;;;;;;27.52;31.94;101111.94;6190071;23;20013;-82
2022/06/22 11:21:52;;;;;;;5.95;2.40;;;;;;;28.41;30.81;101106.94;6189322;23;20011;-82
2022/06/22 11:24:56;;;;;;;4.30;2.60;;;;;;;31.62;28.91;101107.88;6189249;23;20423;-83
2022/06/22 11:33:28;;;;;;;6.32;2.45;;;;;;;38.88;20.44;101107.84;6199367;23;20023;-82
2022/06/22 11:36:05;;;;;;;6.03;2.47;;;;;;;40.75;18.88;101107.22;6216633;23;20036;-83
2022/06/22 11:39:02;;;;;;;5.93;3.03;;;;;;;42.51;18.11;101098.72;6215829;23;20028;-83
2022/06/22 11:41:30;;;;;;;7.72;3.30;;;;;;;43.28;15.33;101102.72;6190221;23;20019;-83
2022/06/22 11:44:24;;;;;;;5.10;3.20;;;;;;;44.25;15.36;101105.69;6193859;23;20016;-83
2022/06/22 11:46:54;;;;;;;6.47;3.40;;;;;;;45.02;14.16;101094.00;6220367;23;20016;-86
2022/06/22 11:49:45;;;;;;;3.53;3.20;;;;;;;45.80;14.60;101098.78;6247971;23;20070;-83
2022/06/22 11:52:26;;;;;;;3.95;3.28;;;;;;;46.07;13.41;101094.72;6221390;23;20008;-83
2022/06/22 11:55:22;;;;;;;5.75;3.80;;;;;;;47.37;13.99;101087.56;6221603;23;20055;-85
2022/06/22 11:58:12;;;;;;;9.03;4.10;;;;;;;47.86;12.52;101089.00;6220713;23;20398;-85
2022/06/22 12:00:43;;;;;;;8.27;3.88;;;;;;;47.98;11.63;101076.59;6246724;23;20010;-84
2022/06/22 12:03:15;;;;;;;8.05;3.72;;;;;;;48.32;9.94;101080.59;6247168;23;20026;-84
2022/06/22 12:05:46;;;;;;;6.53;4.18;;;;;;;48.46;11.47;101070.59;6221316;23;20008;-84
2022/06/22 12:08:27;;;;;;;7.10;4.38;;;;;;;49.07;11.43;101070.03;6221009;23;20012;-84
2022/06/22 12:11:30;;;;;;;7.80;5.23;;;;;;;50.29;10.92;101067.22;6221697;23;20016;-85
2022/06/22 12:17:08;;;;;;;8.82;4.75;;;;;;;50.68;10.25;101060.75;6247818;23;20088;-84
2022/06/22 12:20:07;;;;;;;5.22;4.72;;;;;;;51.61;9.96;101043.38;6221033;23;20000;-85
2022/06/22 12:22:51;;;;;;;6.68;4.88;;;;;;;50.56;8.88;101045.25;6246839;23;20011;-85
2022/06/22 12:25:56;;;;;;;10.10;5.30;;;;;;;51.36;9.90;101039.78;6220342;23;20004;-85
2022/06/22 12:28:59;;;;;;;5.80;5.07;;;;;;;51.53;9.74;101024.81;6123858;23;20004;-85
2022/06/22 12:31:30;;;;;;;8.43;5.15;;;;;;;51.54;7.99;101021.44;6247394;23;20053;-85
2022/06/22 12:34:06;;;;;;;6.32;5.72;;;;;;;52.05;8.97;101021.50;6220661;23;20031;-83
2022/06/22 12:36:42;;;;;;;7.03;5.10;;;;;;;52.28;8.17;101020.53;6221491;23;20087;-83